Edward F Knapp State Airport Barre, Montpelier US
ICAO: KMPV
IATA: MPV
Category: Medium
Scheduled Services: No

Elevation: 1166 ft
TransAlt. 18000 ft.

Airport Communications:
ASOS:132.675
BOSTON CNTR:135.7
BURLINGTON RDO:122.6
CTAF/UNICOM:122.8

KMPV Zoom In..

Runways:

(A) RW 05 length 4022 ft width 100 ft
---- / hdg 48

(B) RW 17 length 5002 ft width 100 ft
ILS 108.70 / hdg 168

(C) RW 23 length 4022 ft width 100 ft
---- / hdg 228

(D) RW 35 length 5002 ft width 100 ft
---- / hdg 348

Location; KMPV
Day. 22 / Time. 23.51 Zulu
* Altimeter: 30.19
* Temperature: -02° c. -28.4°f.
* Wind from: 160° Speed 09 kn with Gusts up to 16 kn.
Dewpoint: -03° c.
Visibility: 4 Statute Miles.
Clouds: Broken 1000 ft.
Clouds: Overcast 1500 ft.
Conditions: Mist.

KMPV 222351Z AUTO 16009G16KT 4SM -FZRA BR BKN010 OVC015 M02/M03 A3019 RMK AO2 UPB2255E16FZRAE2255B16 CIG 007V011 SLP240 P0004 60005 I1001 I6002 T10171028 10006 21022 58008


Wind From 160°
Speed 09 kn.

YouTube Music Video
 
jpsmedia.com for Web Design  worldairports.se 2018   terms of use